Time;durP1;ratioP1;P1;durP2;ratioP2;P2;SDS_P1;SDS_P2;PMS_P1;PMS_P2;Temp;Humidity;BMP_temperature;BMP_pressure;BME280_temperature;BME280_humidity;BME280_pressure;Samples;Min_cycle;Max_cycle;Signal;HPM_P1;HPM_P2
2022/11/24 00:01:49;;;;;;;;;;;;;;;22.15;42.95;94045.06;6120424;19;2262;-66
2022/11/24 00:03:55;;;;;;;;;;;;;;;22.19;42.99;94045.38;6122431;19;2298;-66
2022/11/24 00:05:58;;;;;;;;;;;;;;;22.20;43.11;94050.47;6118678;19;1973;-66
2022/11/24 00:08:01;;;;;;;;;;;;;;;22.17;43.03;94052.81;6120928;19;2014;-66
2022/11/24 00:10:05;;;;;;;;;;;;;;;22.13;43.30;94061.34;6107692;19;2881;-66
2022/11/24 00:12:11;;;;;;;;;;;;;;;22.16;43.25;94053.88;6110207;19;2025;-65
2022/11/24 00:14:14;;;;;;;;;;;;;;;22.17;43.33;94050.13;6118587;19;1951;-66
2022/11/24 00:16:18;;;;;;;;;;;;;;;22.13;43.27;94058.66;6122830;19;1934;-66
2022/11/24 00:18:21;;;;;;;;;;;;;;;22.15;43.28;94063.78;6120096;19;1907;-65
2022/11/24 00:20:25;;;;;;;;;;;;;;;22.22;43.05;94076.97;6118213;19;1967;-65
2022/11/24 00:22:28;;;;;;;;;;;;;;;22.18;43.17;94068.63;6098201;19;2193;-66
2022/11/24 00:24:31;;;;;;;;;;;;;;;22.21;42.51;94067.34;6118369;19;2093;-65
2022/11/24 00:26:36;;;;;;;;;;;;;;;22.19;42.91;94069.44;6120871;19;2097;-66
2022/11/24 00:28:42;;;;;;;;;;;;;;;22.20;42.95;94071.09;6121570;19;1910;-65
2022/11/24 00:30:46;;;;;;;;;;;;;;;22.19;42.78;94072.13;6120542;19;2100;-67
2022/11/24 00:32:49;;;;;;;;;;;;;;;22.18;42.77;94078.53;6106377;19;2088;-67
2022/11/24 00:34:52;;;;;;;;;;;;;;;22.19;43.11;94072.91;6107557;19;2183;-66
2022/11/24 00:36:55;;;;;;;;;;;;;;;22.18;43.14;94074.00;6116921;19;1041;-66
2022/11/24 00:38:59;;;;;;;;;;;;;;;22.19;42.92;94078.28;6119718;19;2035;-67
2022/11/24 00:41:03;;;;;;;;;;;;;;;22.19;42.77;94080.16;6118587;19;2075;-66
2022/11/24 00:43:06;;;;;;;;;;;;;;;22.22;42.95;94074.31;6117038;19;1925;-66
2022/11/24 00:45:12;;;;;;;;;;;;;;;22.20;42.66;94073.75;6097126;19;1922;-66
2022/11/24 00:47:16;;;;;;;;;;;;;;;22.17;42.94;94072.38;6121258;19;2139;-66
2022/11/24 00:49:19;;;;;;;;;;;;;;;22.19;42.48;94074.78;6119554;19;1929;-65
2022/11/24 00:51:25;;;;;;;;;;;;;;;22.20;42.78;94081.78;6119712;19;1964;-66
2022/11/24 00:53:28;;;;;;;;;;;;;;;22.17;42.86;94087.59;6119188;19;2078;-65
2022/11/24 00:55:32;;;;;;;;;;;;;;;22.16;43.85;94086.78;6110366;19;1783;-66
2022/11/24 00:57:36;;;;;;;;;;;;;;;22.19;43.35;94085.50;6106613;19;1999;-67
2022/11/24 00:59:39;;;;;;;;;;;;;;;22.18;43.18;94086.56;6116990;19;2172;-67
2022/11/24 01:01:45;;;;;;;;;;;;;;;22.16;43.49;94086.78;6117953;19;1805;-67
2022/11/24 01:03:48;;;;;;;;;;;;;;;22.14;43.55;94083.56;6117129;19;2200;-67
2022/11/24 01:05:52;;;;;;;;;;;;;;;22.16;43.24;94086.00;6118785;19;2234;-66
2022/11/24 01:07:55;;;;;;;;;;;;;;;22.16;43.00;94091.34;6095337;19;1932;-66
2022/11/24 01:09:58;;;;;;;;;;;;;;;22.18;43.21;94081.22;6119805;19;1940;-67
2022/11/24 01:12:04;;;;;;;;;;;;;;;22.16;43.29;94083.31;6117668;19;1863;-65
2022/11/24 01:14:08;;;;;;;;;;;;;;;22.17;42.92;94083.09;6118011;19;2072;-67
2022/11/24 01:16:15;;;;;;;;;;;;;;;22.18;43.21;94083.88;6119633;19;1832;-66
2022/11/24 01:18:21;;;;;;;;;;;;;;;22.21;43.21;94088.75;6118445;19;1982;-67
2022/11/24 01:20:25;;;;;;;;;;;;;;;22.20;43.16;94081.78;6094071;19;2477;-67
2022/11/24 01:22:28;;;;;;;;;;;;;;;22.16;43.35;94084.13;6118454;19;1905;-67
2022/11/24 01:24:31;;;;;;;;;;;;;;;22.15;43.47;94084.38;6118853;19;2084;-68
2022/11/24 01:26:35;;;;;;;;;;;;;;;22.20;42.80;94081.78;6116670;19;1885;-67
2022/11/24 01:28:38;;;;;;;;;;;;;;;22.22;42.92;94085.00;6117701;19;1919;-66
2022/11/24 01:30:42;;;;;;;;;;;;;;;22.21;43.10;94080.72;6101628;19;2150;-67
2022/11/24 01:32:45;;;;;;;;;;;;;;;22.21;43.06;94084.19;6113183;19;2077;-67
2022/11/24 01:34:51;;;;;;;;;;;;;;;22.21;43.19;94072.69;6118364;19;1959;-67
2022/11/24 01:36:54;;;;;;;;;;;;;;;22.18;42.87;94067.84;6117371;19;1731;-65
2022/11/24 01:38:57;;;;;;;;;;;;;;;22.23;43.02;94075.94;6118579;19;1732;-66
2022/11/24 01:41:04;;;;;;;;;;;;;;;22.21;43.15;94080.72;6118685;19;2069;-66
2022/11/24 01:43:17;;;;;;;;;;;;;;;22.19;43.12;94082.81;6093938;19;1924;-65
2022/11/24 01:45:34;;;;;;;;;;;;;;;22.14;43.34;94078.22;6116792;19;2063;-66
2022/11/24 01:47:41;;;;;;;;;;;;;;;22.21;42.99;94078.03;6116631;19;2189;-67
2022/11/24 01:49:46;;;;;;;;;;;;;;;22.22;43.02;94087.69;6115979;19;1025;-66
2022/11/24 01:51:54;;;;;;;;;;;;;;;22.22;43.23;94093.03;6118015;19;2136;-66
2022/11/24 01:54:00;;;;;;;;;;;;;;;22.24;43.02;94097.09;6094757;19;2072;-66
2022/11/24 01:56:04;;;;;;;;;;;;;;;22.20;43.09;94087.13;6116805;19;2041;-66
2022/11/24 01:58:09;;;;;;;;;;;;;;;22.23;43.10;94086.66;6117290;19;2055;-65
2022/11/24 02:00:14;;;;;;;;;;;;;;;22.21;43.01;94088.75;6117574;19;1984;-67
2022/11/24 02:02:18;;;;;;;;;;;;;;;22.22;43.13;94091.16;6115092;19;2039;-66
2022/11/24 02:04:24;;;;;;;;;;;;;;;22.24;43.50;94090.94;6115080;19;2101;-67
2022/11/24 02:06:29;;;;;;;;;;;;;;;22.17;43.51;94083.09;6092929;19;1779;-66
2022/11/24 02:08:39;;;;;;;;;;;;;;;22.18;43.22;94081.22;6116959;19;1992;-66
2022/11/24 02:10:43;;;;;;;;;;;;;;;22.22;42.76;94090.34;6115568;19;1980;-67
2022/11/24 02:12:48;;;;;;;;;;;;;;;22.21;42.89;94086.06;6116378;19;2728;-67
2022/11/24 02:14:51;;;;;;;;;;;;;;;22.24;43.06;94090.94;6115861;19;1969;-67
2022/11/24 02:16:54;;;;;;;;;;;;;;;22.26;43.13;94083.47;6097841;19;2215;-67
2022/11/24 02:18:58;;;;;;;;;;;;;;;22.24;42.80;94088.25;6115041;19;1683;-66
2022/11/24 02:21:01;;;;;;;;;;;;;;;22.30;42.87;94087.28;6115668;19;1858;-67
2022/11/24 02:23:07;;;;;;;;;;;;;;;22.22;42.83;94082.34;6117694;19;2202;-68
2022/11/24 02:25:16;;;;;;;;;;;;;;;22.22;42.92;94090.34;6117614;19;2067;-66
2022/11/24 02:27:23;;;;;;;;;;;;;;;22.20;43.33;94090.63;6117181;19;2077;-67
2022/11/24 02:29:26;;;;;;;;;;;;;;;22.23;43.21;94087.44;6094100;19;2099;-65
2022/11/24 02:31:29;;;;;;;;;;;;;;;22.23;42.73;94094.69;6118694;19;2135;-66
2022/11/24 02:33:33;;;;;;;;;;;;;;;22.25;42.72;94098.72;6118239;19;1907;-66
2022/11/24 02:35:36;;;;;;;;;;;;;;;22.22;42.92;94090.34;6117028;19;2116;-66
2022/11/24 02:37:39;;;;;;;;;;;;;;;22.19;42.98;94096.19;6120111;19;1966;-66
2022/11/24 02:39:43;;;;;;;;;;;;;;;22.22;43.23;94093.84;6106293;19;2008;-65
2022/11/24 02:41:48;;;;;;;;;;;;;;;22.27;42.89;94093.94;6104261;19;2086;-65
2022/11/24 02:43:56;;;;;;;;;;;;;;;22.24;42.75;94101.63;6118497;19;2090;-65
2022/11/24 02:45:59;;;;;;;;;;;;;;;22.28;43.15;94095.56;6115351;19;2120;-65
2022/11/24 02:48:03;;;;;;;;;;;;;;;22.32;42.92;94090.53;6118223;19;1958;-66
2022/11/24 02:50:06;;;;;;;;;;;;;;;22.36;42.81;94099.66;6118163;19;1798;-64
2022/11/24 02:52:10;;;;;;;;;;;;;;;22.35;43.01;94103.41;6092248;19;1996;-64
2022/11/24 02:54:13;;;;;;;;;;;;;;;22.31;43.24;94111.13;6116573;19;1893;-64
2022/11/24 02:56:16;;;;;;;;;;;;;;;22.29;43.52;94099.84;6114561;19;2021;-64
2022/11/24 02:58:20;;;;;;;;;;;;;;;22.29;43.25;94101.72;6116215;19;1730;-64
2022/11/24 03:00:26;;;;;;;;;;;;;;;22.29;42.91;94097.19;6116867;19;1968;-63
2022/11/24 03:02:29;;;;;;;;;;;;;;;22.22;43.13;94091.16;6103173;19;1937;-63
2022/11/24 03:04:32;;;;;;;;;;;;;;;22.25;43.19;94097.91;6103823;19;2237;-65
2022/11/24 03:06:36;;;;;;;;;;;;;;;22.26;43.38;94097.66;6122502;19;1918;-64
2022/11/24 03:08:40;;;;;;;;;;;;;;;22.22;42.96;94101.06;6122313;19;2055;-63
2022/11/24 03:10:43;;;;;;;;;;;;;;;22.24;43.16;94099.75;6124329;19;1790;-63
2022/11/24 03:12:46;;;;;;;;;;;;;;;22.22;42.89;94099.19;6121525;19;1299;-62
2022/11/24 03:14:50;;;;;;;;;;;;;;;22.22;43.01;94107.22;6101853;19;1830;-64
2022/11/24 03:16:55;;;;;;;;;;;;;;;22.21;42.97;94102.94;6122145;19;2070;-66
2022/11/24 03:18:59;;;;;;;;;;;;;;;22.26;43.04;94107.56;6121952;19;1912;-64
2022/11/24 03:21:02;;;;;;;;;;;;;;;22.20;43.73;94101.31;6122112;19;1947;-63
2022/11/24 03:23:05;;;;;;;;;;;;;;;22.24;43.16;94112.34;6122067;19;1939;-63
2022/11/24 03:25:09;;;;;;;;;;;;;;;22.26;43.24;94107.56;6124931;19;2070;-65
2022/11/24 03:27:12;;;;;;;;;;;;;;;22.27;43.22;94111.84;6098336;19;1904;-62
2022/11/24 03:29:15;;;;;;;;;;;;;;;22.27;42.90;94115.34;6121983;19;1910;-64
2022/11/24 03:31:19;;;;;;;;;;;;;;;22.26;42.95;94112.91;6121881;19;2059;-64
2022/11/24 03:33:25;;;;;;;;;;;;;;;22.29;43.10;94121.25;6118890;19;2175;-63
2022/11/24 03:35:28;;;;;;;;;;;;;;;22.27;42.73;94127.91;6119822;19;1764;-65
2022/11/24 03:37:31;;;;;;;;;;;;;;;22.29;43.07;94120.44;6102661;19;2042;-66
2022/11/24 03:39:35;;;;;;;;;;;;;;;22.31;42.95;94123.72;6118669;19;1998;-63
2022/11/24 03:41:38;;;;;;;;;;;;;;;22.29;43.35;94125.81;6117895;19;1837;-64
2022/11/24 03:43:41;;;;;;;;;;;;;;;22.24;43.24;94137.22;6120780;19;1769;-62
2022/11/24 03:45:47;;;;;;;;;;;;;;;22.32;43.29;94144.03;6119566;19;1886;-62
2022/11/24 03:47:51;;;;;;;;;;;;;;;22.30;43.19;94135.44;6120425;19;1959;-63
2022/11/24 03:49:57;;;;;;;;;;;;;;;22.30;43.13;94136.25;6097228;19;2259;-66
2022/11/24 03:52:01;;;;;;;;;;;;;;;22.37;43.20;94137.94;6123337;19;2019;-65
2022/11/24 03:54:04;;;;;;;;;;;;;;;22.46;43.00;94145.34;6121252;19;1900;-68
2022/11/24 03:56:07;;;;;;;;;;;;;;;22.42;43.06;94146.88;6120236;19;2082;-67
2022/11/24 03:58:11;;;;;;;;;;;;;;;22.47;43.05;94154.16;6123505;19;2091;-67
2022/11/24 04:00:14;;;;;;;;;;;;;;;22.48;42.98;94161.97;6108993;19;1851;-66
2022/11/24 04:02:18;;;;;;;;;;;;;;;22.46;42.75;94156.03;6106797;19;2209;-68
2022/11/24 04:04:21;;;;;;;;;;;;;;;22.48;42.96;94156.63;6120378;19;1874;-67
2022/11/24 04:06:27;;;;;;;;;;;;;;;22.42;42.87;94165.59;6120849;19;2095;-66
2022/11/24 04:08:30;;;;;;;;;;;;;;;21.87;36.68;94164.41;6121910;19;2026;-66
2022/11/24 04:10:35;;;;;;;;;;;;;;;20.88;38.29;94163.75;6121228;19;2035;-67
2022/11/24 04:12:45;;;;;;;;;;;;;;;20.00;37.85;94168.06;6098234;19;1620;-67
2022/11/24 04:14:48;;;;;;;;;;;;;;;19.20;37.44;94166.44;6121845;19;2052;-67
2022/11/24 04:16:51;;;;;;;;;;;;;;;19.04;37.58;94159.09;6121672;19;2152;-67
2022/11/24 04:18:55;;;;;;;;;;;;;;;19.24;37.36;94167.66;6120844;19;1913;-67
2022/11/24 04:20:58;;;;;;;;;;;;;;;18.83;36.44;94173.63;6121733;19;1841;-67
2022/11/24 04:23:04;;;;;;;;;;;;;;;18.97;36.38;94178.56;6113410;19;1984;-67
2022/11/24 04:25:09;;;;;;;;;;;;;;;18.81;35.70;94179.19;6106676;19;3688;-67
2022/11/24 04:27:12;;;;;;;;;;;;;;;18.57;35.84;94174.69;6118132;19;2297;-67
2022/11/24 04:29:15;;;;;;;;;;;;;;;18.79;34.67;94178.59;6121660;19;1786;-67
2022/11/24 04:31:18;;;;;;;;;;;;;;;18.44;35.41;94183.56;6119364;19;1917;-67
2022/11/24 04:33:22;;;;;;;;;;;;;;;18.10;36.36;94181.22;6120351;19;2102;-67
2022/11/24 04:35:25;;;;;;;;;;;;;;;17.96;36.43;94190.31;6098620;19;1723;-67
2022/11/24 04:37:28;;;;;;;;;;;;;;;17.88;36.52;94195.88;6116585;19;1354;-66
2022/11/24 04:39:35;;;;;;;;;;;;;;;17.89;36.79;94200.16;6117614;19;1621;-66
2022/11/24 04:41:38;;;;;;;;;;;;;;;17.86;36.73;94189.97;6117686;19;1856;-66
2022/11/24 04:43:41;;;;;;;;;;;;;;;17.84;36.84;94194.66;6116791;19;1153;-66
2022/11/24 04:45:44;;;;;;;;;;;;;;;17.78;37.29;94182.25;6117573;19;1792;-69
2022/11/24 04:47:48;;;;;;;;;;;;;;;18.77;36.80;94188.63;6096519;19;1613;-67
2022/11/24 04:49:51;;;;;;;;;;;;;;;19.50;35.67;94193.13;6118752;19;915;-67
2022/11/24 04:51:55;;;;;;;;;;;;;;;19.96;35.17;94191.69;6121653;19;1838;-66
2022/11/24 04:53:58;;;;;;;;;;;;;;;20.44;35.96;94192.66;6116454;19;1999;-65
2022/11/24 04:56:05;;;;;;;;;;;;;;;20.79;35.28;94201.47;6121264;19;2577;-65
2022/11/24 04:58:09;;;;;;;;;;;;;;;20.98;35.02;94204.03;6107685;19;1910;-66
2022/11/24 05:00:14;;;;;;;;;;;;;;;21.06;35.29;94201.00;6113441;19;2100;-66
2022/11/24 05:02:17;;;;;;;;;;;;;;;21.14;35.13;94195.31;6117345;19;2149;-65
2022/11/24 05:04:20;;;;;;;;;;;;;;;21.25;35.10;94200.88;6118076;19;1133;-65
2022/11/24 05:06:24;;;;;;;;;;;;;;;21.21;34.72;94200.53;6117564;19;2231;-66
2022/11/24 05:08:27;;;;;;;;;;;;;;;21.16;34.63;94203.06;6117583;19;982;-65
2022/11/24 05:10:34;;;;;;;;;;;;;;;21.13;34.88;94207.00;6094256;19;1433;-66
2022/11/24 05:12:40;;;;;;;;;;;;;;;21.11;35.34;94206.44;6121127;19;1797;-66
2022/11/24 05:14:46;;;;;;;;;;;;;;;21.11;35.22;94208.28;6116469;19;2212;-66
2022/11/24 05:16:50;;;;;;;;;;;;;;;21.13;35.63;94207.00;6115792;19;2084;-65
2022/11/24 05:18:53;;;;;;;;;;;;;;;21.12;35.70;94209.94;6119672;19;2141;-68
2022/11/24 05:20:56;;;;;;;;;;;;;;;21.14;35.92;94214.00;6108081;19;1894;-66
2022/11/24 05:23:02;;;;;;;;;;;;;;;21.17;35.52;94218.03;6104520;19;1273;-67
2022/11/24 05:25:06;;;;;;;;;;;;;;;21.19;36.33;94210.63;6115105;19;1296;-65
2022/11/24 05:27:09;;;;;;;;;;;;;;;21.41;36.09;94211.66;6115293;19;1346;-66
2022/11/24 05:29:15;;;;;;;;;;;;;;;21.50;36.36;94208.59;6115001;19;1061;-67
2022/11/24 05:31:18;;;;;;;;;;;;;;;21.49;36.33;94210.47;6114101;19;1148;-66
2022/11/24 05:33:22;;;;;;;;;;;;;;;21.48;36.27;94213.38;6093774;19;1540;-66
2022/11/24 05:35:25;;;;;;;;;;;;;;;21.49;36.51;94213.16;6116469;19;1347;-67
2022/11/24 05:37:27;;;;;;;;;;;;;;;21.53;36.33;94213.47;6114805;19;1046;-65
2022/11/24 05:39:31;;;;;;;;;;;;;;;21.52;36.35;94220.69;6113677;19;1214;-66
2022/11/24 05:41:34;;;;;;;;;;;;;;;21.55;35.94;94224.75;6114060;19;1838;-66
2022/11/24 05:43:37;;;;;;;;;;;;;;;21.56;36.33;94232.50;6103271;19;1246;-66
2022/11/24 05:45:44;;;;;;;;;;;;;;;21.56;36.75;94227.16;6104296;19;1242;-65
2022/11/24 05:47:47;;;;;;;;;;;;;;;21.56;36.32;94232.50;6115444;19;1141;-67
2022/11/24 05:49:51;;;;;;;;;;;;;;;21.56;36.64;94227.16;6114991;19;965;-64
2022/11/24 05:51:54;;;;;;;;;;;;;;;;;;6117448;19;1212;-66
2022/11/24 05:53:58;;;;;;;;;;;;;;;21.55;36.93;94224.75;6116239;19;1629;-63
2022/11/24 05:56:04;;;;;;;;;;;;;;;21.54;37.00;94223.94;6095509;19;1450;-64
2022/11/24 05:58:08;;;;;;;;;;;;;;;21.54;36.82;94229.28;6117911;19;1136;-65
2022/11/24 06:00:13;;;;;;;;;;;;;;;21.53;36.82;94229.50;6116646;19;1137;-64
2022/11/24 06:02:19;;;;;;;;;;;;;;;21.50;37.23;94230.78;6114364;19;1857;-67
2022/11/24 06:04:23;;;;;;;;;;;;;;;21.54;37.82;94234.63;6117182;19;2090;-65
2022/11/24 06:06:26;;;;;;;;;;;;;;;21.62;38.24;94239.59;6104058;19;1136;-65
2022/11/24 06:08:29;;;;;;;;;;;;;;;21.66;38.21;94242.63;6102139;19;1287;-66
2022/11/24 06:10:33;;;;;;;;;;;;;;;21.67;38.11;94242.38;6116723;19;1006;-67
2022/11/24 06:12:36;;;;;;;;;;;;;;;21.69;38.13;94250.16;6116933;19;1529;-66
2022/11/24 06:14:39;;;;;;;;;;;;;;;21.67;38.19;94245.03;6115924;19;970;-65
2022/11/24 06:16:42;;;;;;;;;;;;;;;21.68;38.18;94241.34;6116572;19;977;-65
2022/11/24 06:18:48;;;;;;;;;;;;;;;21.71;38.54;94249.91;6093646;19;1567;-65
2022/11/24 06:20:52;;;;;;;;;;;;;;;21.68;38.65;94240.50;6115713;19;1271;-64
2022/11/24 06:22:55;;;;;;;;;;;;;;;21.74;39.47;94252.09;6115597;19;1054;-64
2022/11/24 06:24:58;;;;;;;;;;;;;;;21.78;39.44;94250.59;6114829;19;1050;-66
2022/11/24 06:27:01;;;;;;;;;;;;;;;21.80;39.32;94265.34;6116654;19;979;-66
2022/11/24 06:29:05;;;;;;;;;;;;;;;21.78;38.66;94258.63;6105231;19;1254;-65
2022/11/24 06:31:08;;;;;;;;;;;;;;;21.79;38.99;94261.03;6101661;19;1430;-64
2022/11/24 06:33:11;;;;;;;;;;;;;;;21.82;38.82;94262.44;6116892;19;1216;-64
2022/11/24 06:35:17;;;;;;;;;;;;;;;21.85;39.14;94261.97;6116131;19;1050;-64
2022/11/24 06:37:21;;;;;;;;;;;;;;;21.87;39.05;94275.91;6116413;19;1033;-65
2022/11/24 06:39:24;;;;;;;;;;;;;;;21.87;39.36;94270.56;6115271;19;1030;-66
2022/11/24 06:41:27;;;;;;;;;;;;;;;21.87;39.05;94275.91;6098681;19;1865;-64
2022/11/24 06:43:31;;;;;;;;;;;;;;;21.88;39.12;94272.16;6122803;19;963;-65
2022/11/24 06:45:34;;;;;;;;;;;;;;;21.86;39.10;94290.34;6119432;19;1025;-64
2022/11/24 06:47:38;;;;;;;;;;;;;;;21.86;39.33;94287.66;6120732;19;1635;-64
2022/11/24 06:49:41;;;;;;;;;;;;;;;21.86;39.03;94293.00;6123047;19;962;-64
2022/11/24 06:51:47;;;;;;;;;;;;;;;21.86;39.06;94306.38;6111291;19;1294;-65
2022/11/24 06:53:50;;;;;;;;;;;;;;;21.84;39.28;94293.25;6110248;19;1294;-66
2022/11/24 06:55:53;;;;;;;;;;;;;;;21.86;39.01;94301.03;6123372;19;1278;-65
2022/11/24 06:57:57;;;;;;;;;;;;;;;21.82;39.21;94313.25;6119391;19;1144;-65
2022/11/24 07:00:00;;;;;;;;;;;;;;;21.58;39.07;94309.81;6118668;19;1579;-65
2022/11/24 07:02:03;;;;;;;;;;;;;;;21.50;39.08;94318.19;6120504;19;1843;-64
2022/11/24 07:04:07;;;;;;;;;;;;;;;21.67;39.45;94319.91;6098507;19;1160;-63
2022/11/24 07:06:10;;;;;;;;;;;;;;;21.66;39.00;94322.81;6120016;19;1266;-63
2022/11/24 07:08:16;;;;;;;;;;;;;;;21.79;39.23;94321.75;6121368;19;1016;-66
2022/11/24 07:10:19;;;;;;;;;;;;;;;21.74;38.99;94326.97;6121194;19;1066;-64
2022/11/24 07:12:23;;;;;;;;;;;;;;;21.78;39.21;94328.16;6121102;19;1010;-65
2022/11/24 07:14:26;;;;;;;;;;;;;;;21.73;39.35;94325.34;6110046;19;1258;-67
2022/11/24 07:16:30;;;;;;;;;;;;;;;21.74;39.05;94324.28;6107112;19;1282;-62
2022/11/24 07:18:33;;;;;;;;;;;;;;;21.77;39.21;94331.84;6121216;19;1025;-67
2022/11/24 07:20:37;;;;;;;;;;;;;;;21.77;38.57;94346.06;6121916;19;1014;-65
2022/11/24 07:22:40;;;;;;;;;;;;;;;21.77;39.21;94346.06;6119489;19;1853;-63
2022/11/24 07:24:46;;;;;;;;;;;;;;;21.75;39.18;94337.44;6121994;19;1247;-66
2022/11/24 07:26:49;;;;;;;;;;;;;;;21.82;39.09;94343.47;6096435;19;1455;-63
2022/11/24 07:28:52;;;;;;;;;;;;;;;21.80;39.04;94344.78;6120750;19;1045;-63
2022/11/24 07:30:56;;;;;;;;;;;;;;;21.71;38.59;94338.13;6120366;19;1013;-64
2022/11/24 07:33:02;;;;;;;;;;;;;;;21.64;38.80;94347.09;6121459;19;1305;-62
2022/11/24 07:35:06;;;;;;;;;;;;;;;21.73;38.67;94357.44;6121522;19;1022;-63
2022/11/24 07:37:09;;;;;;;;;;;;;;;21.79;38.98;94359.97;6109459;19;1242;-63
2022/11/24 07:39:13;;;;;;;;;;;;;;;21.77;38.36;94361.25;6109206;19;1627;-64
2022/11/24 07:41:20;;;;;;;;;;;;;;;21.75;38.66;94358.03;6118855;19;1049;-64
2022/11/24 07:43:24;;;;;;;;;;;;;;;21.73;38.65;94365.47;6119168;19;1857;-62
2022/11/24 07:45:27;;;;;;;;;;;;;;;21.71;38.32;94357.66;6120195;19;1022;-63
2022/11/24 07:47:30;;;;;;;;;;;;;;;21.80;38.37;94364.31;6121864;19;1243;-62
2022/11/24 07:49:34;;;;;;;;;;;;;;;21.83;38.42;94361.16;6095802;19;1968;-64
2022/11/24 07:51:37;;;;;;;;;;;;;;;21.84;38.51;94365.44;6117146;19;1124;-63
2022/11/24 07:53:41;;;;;;;;;;;;;;;21.85;38.54;94363.56;6120970;19;963;-64
2022/11/24 07:55:44;;;;;;;;;;;;;;;21.86;38.12;94373.25;6119237;19;1041;-63
2022/11/24 07:57:50;;;;;;;;;;;;;;;21.86;38.19;94375.91;6119024;19;968;-63
2022/11/24 07:59:53;;;;;;;;;;;;;;;21.83;38.20;94382.56;6108528;19;1439;-64
2022/11/24 08:01:56;;;;;;;;;;;;;;;21.78;38.52;94384.31;6107532;19;1834;-63
2022/11/24 08:04:00;;;;;;;;;;;;;;;21.70;38.53;94388.13;6120343;19;1225;-62
2022/11/24 08:06:03;;;;;;;;;;;;;;;21.67;38.48;94386.72;6118795;19;1054;-66
2022/11/24 08:08:06;;;;;;;;;;;;;;;21.70;38.70;94392.69;6118293;19;1554;-65
2022/11/24 08:10:10;;;;;;;;;;;;;;;21.72;38.51;94391.41;6118778;19;1883;-64
2022/11/24 08:12:15;;;;;;;;;;;;;;;21.64;38.55;94394.41;6097437;19;1410;-66
2022/11/24 08:14:21;;;;;;;;;;;;;;;21.68;38.59;94401.75;6119626;19;1025;-64
2022/11/24 08:16:24;;;;;;;;;;;;;;;21.66;38.59;94403.84;6120376;19;1128;-64
2022/11/24 08:18:28;;;;;;;;;;;;;;;21.71;38.31;94404.97;6120582;19;1005;-65
2022/11/24 08:20:31;;;;;;;;;;;;;;;21.67;38.55;94404.66;6119791;19;1125;-65
2022/11/24 08:22:34;;;;;;;;;;;;;;;21.68;38.28;94406.25;6107046;19;1858;-65
2022/11/24 08:24:44;;;;;;;;;;;;;;;21.73;38.09;94418.94;6108144;19;1552;-63
2022/11/24 08:26:48;;;;;;;;;;;;;;;21.74;38.12;94420.56;6118364;19;975;-64
2022/11/24 08:28:54;;;;;;;;;;;;;;;21.73;38.20;94425.09;6119172;19;974;-63
2022/11/24 08:31:06;;;;;;;;;;;;;;;21.73;38.28;94425.09;6119768;19;966;-64
2022/11/24 08:33:09;;;;;;;;;;;;;;;21.74;38.32;94428.59;6119573;19;1131;-64
2022/11/24 08:35:13;;;;;;;;;;;;;;;21.72;38.39;94431.50;6094787;19;1445;-63
2022/11/24 08:37:16;;;;;;;;;;;;;;;21.79;37.73;94434.03;6118845;19;1655;-65
2022/11/24 08:39:19;;;;;;;;;;;;;;;21.84;38.02;94436.84;6119613;19;973;-65
2022/11/24 08:41:23;;;;;;;;;;;;;;;21.87;38.10;94441.72;6118991;19;1024;-64
2022/11/24 08:43:26;;;;;;;;;;;;;;;21.93;37.76;94445.31;6117099;19;1869;-64
2022/11/24 08:45:30;;;;;;;;;;;;;;;21.92;38.07;94444.53;6106157;19;1107;-62
2022/11/24 08:47:36;;;;;;;;;;;;;;;21.93;37.85;94446.13;6107851;19;1458;-65
2022/11/24 08:49:39;;;;;;;;;;;;;;;21.96;37.95;94453.72;6119836;19;1021;-66
2022/11/24 08:51:42;;;;;;;;;;;;;;;21.97;37.84;94452.69;6118144;19;1063;-66
2022/11/24 08:53:46;;;;;;;;;;;;;;;21.94;38.39;94455.81;6120074;19;1427;-66
2022/11/24 08:55:49;;;;;;;;;;;;;;;21.96;38.34;94452.91;6119829;19;993;-66
2022/11/24 08:57:52;;;;;;;;;;;;;;;21.97;38.22;94457.19;6094145;19;1544;-65
2022/11/24 08:59:56;;;;;;;;;;;;;;;21.97;37.96;94458.03;6118791;19;1214;-65
2022/11/24 09:01:59;;;;;;;;;;;;;;;21.99;38.10;94449.75;6116416;19;1854;-65
2022/11/24 09:04:05;;;;;;;;;;;;;;;21.99;38.45;94466.63;6118435;19;963;-64
2022/11/24 09:06:09;;;;;;;;;;;;;;;22.00;38.35;94464.78;6118474;19;1108;-66
2022/11/24 09:08:12;;;;;;;;;;;;;;;22.00;38.15;94468.28;6107363;19;1125;-66
2022/11/24 09:10:15;;;;;;;;;;;;;;;22.02;38.17;94466.16;6107475;19;1326;-66
2022/11/24 09:12:19;;;;;;;;;;;;;;;22.01;38.35;94469.06;6118633;19;1053;-65
2022/11/24 09:14:22;;;;;;;;;;;;;;;22.02;38.24;94470.69;6118186;19;1229;-64
2022/11/24 09:16:27;;;;;;;;;;;;;;;22.02;38.15;94476.84;6118863;19;1984;-64
2022/11/24 09:18:30;;;;;;;;;;;;;;;22.05;38.20;94475.56;6118800;19;1778;-63
2022/11/24 09:20:36;;;;;;;;;;;;;;;22.05;38.61;94475.56;6095960;19;1389;-65
2022/11/24 09:22:41;;;;;;;;;;;;;;;22.04;38.33;94473.97;6118163;19;1850;-65
2022/11/24 09:24:45;;;;;;;;;;;;;;;21.77;37.98;94478.91;6117405;19;1493;-66
2022/11/24 09:26:48;;;;;;;;;;;;;;;21.17;37.82;94470.03;6117770;19;1352;-65
2022/11/24 09:28:53;;;;;;;;;;;;;;;21.36;38.19;94472.59;6117158;19;1066;-67
2022/11/24 09:30:56;;;;;;;;;;;;;;;21.44;38.25;94472.28;6102111;19;1312;-67
2022/11/24 09:32:59;;;;;;;;;;;;;;;;;;6114426;19;1070;-64
2022/11/24 09:35:02;;;;;;;;;;;;;;;21.12;38.09;94477.88;6118536;19;1093;-64
2022/11/24 09:37:08;;;;;;;;;;;;;;;21.27;37.64;94477.47;6117895;19;949;-65
2022/11/24 09:39:12;;;;;;;;;;;;;;;21.41;38.00;94480.75;6118402;19;1003;-65
2022/11/24 09:41:30;;;;;;;;;;;;;;;21.52;37.97;94482.63;6118159;19;1273;-65
2022/11/24 09:43:40;;;;;;;;;;;;;;;21.63;37.66;94478.34;6093930;19;1857;-65
2022/11/24 09:45:50;;;;;;;;;;;;;;;21.66;37.46;94488.59;6119189;19;980;-65
2022/11/24 09:47:58;;;;;;;;;;;;;;;21.67;37.30;94474.97;6118396;19;1048;-65
2022/11/24 09:50:02;;;;;;;;;;;;;;;21.67;37.73;94474.97;6118081;19;1017;-65
2022/11/24 09:52:11;;;;;;;;;;;;;;;21.67;37.64;94484.84;6117475;19;1225;-64
2022/11/24 09:54:17;;;;;;;;;;;;;;;21.70;37.18;94478.22;6095113;19;1309;-66
2022/11/24 09:56:22;;;;;;;;;;;;;;;21.73;37.31;94491.94;6117647;19;1280;-64
2022/11/24 09:58:41;;;;;;;;;;;;;;;21.73;37.24;94488.47;6115366;19;1120;-63
2022/11/24 10:00:44;;;;;;;;;;;;;;;21.83;37.62;94486.03;6116141;19;1015;-63
2022/11/24 10:02:50;;;;;;;;;;;;;;;21.89;37.32;94493.13;6116723;19;1849;-66
2022/11/24 10:04:55;;;;;;;;;;;;;;;21.91;37.61;94493.72;6105377;19;1546;-66
2022/11/24 10:07:02;;;;;;;;;;;;;;;21.90;37.34;94494.75;6108609;19;1317;-64
2022/11/24 10:09:19;;;;;;;;;;;;;;;21.94;37.57;94495.94;6117816;19;1422;-65
2022/11/24 10:11:27;;;;;;;;;;;;;;;21.95;37.66;94504.75;6117457;19;955;-64
2022/11/24 10:13:38;;;;;;;;;;;;;;;21.97;37.75;94500.00;6116984;19;1066;-66
2022/11/24 10:15:46;;;;;;;;;;;;;;;21.95;37.67;94494.91;6124081;19;1084;-66
2022/11/24 10:17:55;;;;;;;;;;;;;;;21.99;37.93;94503.25;6116494;19;1875;-64
2022/11/24 10:20:05;;;;;;;;;;;;;;;21.98;37.92;94499.78;6128436;19;958;-65
2022/11/24 10:22:19;;;;;;;;;;;;;;;22.01;37.73;94501.19;6128829;19;1152;-64
2022/11/24 10:24:40;;;;;;;;;;;;;;;22.01;37.54;94512.69;6127227;19;1849;-65
2022/11/24 10:26:50;;;;;;;;;;;;;;;21.99;37.42;94496.06;6128247;19;1120;-65
2022/11/24 10:28:55;;;;;;;;;;;;;;;22.04;37.81;94500.72;6104254;19;1356;-65
2022/11/24 10:31:02;;;;;;;;;;;;;;;22.03;37.81;94507.94;6128008;19;1057;-63
2022/11/24 10:33:17;;;;;;;;;;;;;;;22.07;37.68;94501.06;6127708;19;1120;-66
2022/11/24 10:35:22;;;;;;;;;;;;;;;22.08;37.80;94505.38;6127950;19;1037;-66
2022/11/24 10:37:30;;;;;;;;;;;;;;;22.09;37.83;94495.47;6128555;19;1041;-67
2022/11/24 10:39:38;;;;;;;;;;;;;;;22.09;37.77;94498.97;6105721;19;1282;-68
2022/11/24 10:41:48;;;;;;;;;;;;;;;22.10;38.05;94505.13;6128109;19;1025;-64
2022/11/24 10:43:53;;;;;;;;;;;;;;;22.08;37.96;94505.38;6126583;19;1841;-65
2022/11/24 10:45:57;;;;;;;;;;;;;;;22.08;38.04;94501.84;6128565;19;1017;-64
2022/11/24 10:48:00;;;;;;;;;;;;;;;22.06;37.97;94507.47;6128215;19;1013;-65
2022/11/24 10:50:05;;;;;;;;;;;;;;;22.06;37.96;94501.31;6116185;19;1159;-66
2022/11/24 10:52:14;;;;;;;;;;;;;;;22.03;38.30;94499.09;6116519;19;1368;-64
2022/11/24 10:54:18;;;;;;;;;;;;;;;22.03;38.31;94501.78;6127364;19;1121;-65
2022/11/24 10:56:24;;;;;;;;;;;;;;;21.94;37.79;94508.47;6127177;19;1122;-64
2022/11/24 10:58:29;;;;;;;;;;;;;;;21.87;37.85;94498.69;6126982;19;1121;-66